Time;durP1;ratioP1;P1;durP2;ratioP2;P2;SDS_P1;SDS_P2;PMS_P1;PMS_P2;Temp;Humidity;BMP_temperature;BMP_pressure;BME280_temperature;BME280_humidity;BME280_pressure;Samples;Min_cycle;Max_cycle;Signal;HPM_P1;HPM_P2
2023/02/11 00:01:12;;;;;;;;;;;;;;;16.43;35.02;102814.28;5078972;28;1102;-56
2023/02/11 00:03:38;;;;;;;;;;;;;;;15.68;36.50;102825.03;5077269;28;1897;-48
2023/02/11 00:06:04;;;;;;;;;;;;;;;17.52;33.21;102824.06;5078627;28;1178;-56
2023/02/11 00:08:30;;;;;;;;;;;;;;;16.14;35.79;102828.66;5077988;28;1302;-49
2023/02/11 00:10:56;;;;;;;;;;;;;;;17.42;33.44;102821.84;5078474;28;1087;-60
2023/02/11 00:13:21;;;;;;;;;;;;;;;16.96;34.18;102831.44;5078337;28;1027;-52
2023/02/11 00:15:47;;;;;;;;;;;;;;;16.07;35.70;102832.28;5077646;28;1115;-56
2023/02/11 00:18:12;;;;;;;;;;;;;;;15.65;36.82;102823.56;5066919;28;1109;-58
2023/02/11 00:20:38;;;;;;;;;;;;;;;17.17;33.79;102818.31;5075972;28;1233;-58
2023/02/11 00:23:03;;;;;;;;;;;;;;;16.18;35.80;102810.69;5078306;28;2503;-57
2023/02/11 00:25:29;;;;;;;;;;;;;;;17.99;32.51;102817.97;5078026;28;1046;-53
2023/02/11 00:27:54;;;;;;;;;;;;;;;17.20;33.64;102812.38;5077579;28;1186;-53
2023/02/11 00:30:19;;;;;;;;;;;;;;;16.29;35.31;102812.72;5076160;28;1111;-53
2023/02/11 00:32:45;;;;;;;;;;;;;;;17.79;32.74;102809.94;5077842;28;1043;-54
2023/02/11 00:35:10;;;;;;;;;;;;;;;16.33;35.50;102802.97;5077299;28;1117;-53
2023/02/11 00:37:37;;;;;;;;;;;;;;;17.77;33.05;102809.34;5078005;28;1150;-51
2023/02/11 00:40:03;;;;;;;;;;;;;;;17.53;33.05;102800.13;5077143;28;1026;-51
2023/02/11 00:42:31;;;;;;;;;;;;;;;16.47;35.03;102808.38;5077485;28;1910;-52
2023/02/11 00:44:56;;;;;;;;;;;;;;;17.73;33.10;102803.47;5077824;28;999;-57
2023/02/11 00:47:22;;;;;;;;;;;;;;;16.60;34.97;102811.81;5076458;28;1527;-56
2023/02/11 00:49:47;;;;;;;;;;;;;;;16.70;34.79;102805.81;5077810;28;1178;-56
2023/02/11 00:52:13;;;;;;;;;;;;;;;17.26;33.72;102798.56;5077469;28;2413;-57
2023/02/11 00:54:38;;;;;;;;;;;;;;;16.32;35.24;102800.44;5077398;28;1058;-55
2023/02/11 00:57:05;;;;;;;;;;;;;;;17.87;32.87;102804.13;5076392;28;1201;-58
2023/02/11 00:59:30;;;;;;;;;;;;;;;16.74;34.32;102801.56;5076327;28;1132;-55
2023/02/11 01:01:56;;;;;;;;;;;;;;;17.89;32.49;102799.25;5076464;28;1285;-57
2023/02/11 01:04:21;;;;;;;;;;;;;;;18.26;31.79;102792.81;5109504;28;1918;-57
2023/02/11 01:06:50;;;;;;;;;;;;;;;16.76;34.40;102793.94;5088988;28;1296;-57
2023/02/11 01:09:15;;;;;;;;;;;;;;;16.21;35.36;102797.34;5076998;28;1191;-52
2023/02/11 01:11:41;;;;;;;;;;;;;;;17.68;32.95;102786.81;5077027;28;1241;-52
2023/02/11 01:14:06;;;;;;;;;;;;;;;16.40;35.26;102792.78;5077249;28;1123;-55
2023/02/11 01:16:32;;;;;;;;;;;;;;;16.69;34.93;102790.44;5076648;28;1178;-58
2023/02/11 01:18:57;;;;;;;;;;;;;;;17.00;33.89;102787.81;5077156;28;1089;-58
2023/02/11 01:21:23;;;;;;;;;;;;;;;16.23;35.61;102783.41;5077070;28;2394;-51
2023/02/11 01:23:49;;;;;;;;;;;;;;;18.15;32.08;102785.34;5092504;28;1909;-55
2023/02/11 01:26:15;;;;;;;;;;;;;;;16.76;34.54;102782.13;5077111;28;980;-59
2023/02/11 01:28:40;;;;;;;;;;;;;;;16.73;34.82;102779.81;5076194;28;1114;-55
2023/02/11 01:31:06;;;;;;;;;;;;;;;17.44;33.15;102764.69;5076986;28;1060;-52
2023/02/11 01:33:31;;;;;;;;;;;;;;;16.42;35.33;102771.44;5077031;28;1180;-54
2023/02/11 01:36:01;;;;;;;;;;;;;;;18.33;31.88;102768.75;5076757;28;1519;-56
2023/02/11 01:38:27;;;;;;;;;;;;;;;16.99;34.16;102751.25;5076576;28;1098;-53
2023/02/11 01:40:53;;;;;;;;;;;;;;;16.65;34.78;102769.09;5076476;28;1127;-55
2023/02/11 01:43:18;;;;;;;;;;;;;;;17.67;32.86;102760.38;5075771;28;1926;-56
2023/02/11 01:45:45;;;;;;;;;;;;;;;16.56;34.77;102763.94;5076626;28;1123;-60
2023/02/11 01:48:14;;;;;;;;;;;;;;;16.99;34.41;102759.50;5076161;28;1031;-56
2023/02/11 01:50:40;;;;;;;;;;;;;;;16.80;34.27;102763.28;5076456;28;1150;-58
2023/02/11 01:58:34;;;;;;;;;;;;;;;16.76;34.46;102763.72;5091921;28;1107;-55
2023/02/11 02:01:01;;;;;;;;;;;;;;;16.92;34.26;102756.00;5058618;28;1114;-54
2023/02/11 02:03:27;;;;;;;;;;;;;;;16.97;34.25;102758.91;5108528;28;1986;-58
2023/02/11 02:06:00;;;;;;;;;;;;;;;18.01;32.50;102763.53;5071147;28;1084;-54
2023/02/11 02:08:32;;;;;;;;;;;;;;;18.72;31.23;102763.63;5058136;28;1113;-54
2023/02/11 02:10:59;;;;;;;;;;;;;;;17.00;33.88;102763.09;5076212;28;1108;-57
2023/02/11 02:13:25;;;;;;;;;;;;;;;16.61;34.95;102763.25;5075338;28;1080;-56
2023/02/11 02:15:52;;;;;;;;;;;;;;;16.72;34.83;102759.75;5074867;28;1190;-58
2023/02/11 02:18:29;;;;;;;;;;;;;;;16.79;34.51;102758.84;5075612;28;873;-57
2023/02/11 02:20:56;;;;;;;;;;;;;;;17.52;33.18;102766.28;5075007;28;1312;-54
2023/02/11 02:23:28;;;;;;;;;;;;;;;18.18;31.71;102768.38;5072661;28;2478;-56
2023/02/11 02:25:56;;;;;;;;;;;;;;;16.75;34.43;102773.03;5075741;28;1120;-60
2023/02/11 02:28:28;;;;;;;;;;;;;;;18.56;31.38;102769.84;5075782;28;1151;-56
2023/02/11 02:31:06;;;;;;;;;;;;;;;17.32;33.43;102771.19;5074255;28;848;-55
2023/02/11 02:33:31;;;;;;;;;;;;;;;17.30;33.78;102770.59;5076141;28;1126;-51
2023/02/11 02:36:15;;;;;;;;;;;;;;;18.04;32.01;102774.06;5068962;28;1023;-55
2023/02/11 02:38:47;;;;;;;;;;;;;;;16.73;34.61;102769.69;5071391;28;1055;-55
2023/02/11 02:41:14;;;;;;;;;;;;;;;16.46;35.24;102768.22;5075342;28;1003;-57
2023/02/11 02:43:41;;;;;;;;;;;;;;;17.38;33.43;102760.13;5074193;28;1991;-55
2023/02/11 02:46:19;;;;;;;;;;;;;;;16.45;35.29;102772.03;5075350;28;1147;-60
2023/02/11 02:48:44;;;;;;;;;;;;;;;18.13;32.02;102778.16;5075883;28;1123;-58
2023/02/11 02:51:14;;;;;;;;;;;;;;;16.86;34.43;102763.22;5075515;28;1107;-56
2023/02/11 02:53:44;;;;;;;;;;;;;;;16.37;35.27;102776.75;5073958;28;2489;-55
2023/02/11 02:56:39;;;;;;;;;;;;;;;17.76;32.58;102777.41;5075619;28;1078;-54
2023/02/11 02:59:17;;;;;;;;;;;;;;;16.42;35.00;102778.81;5053334;28;1143;-52
2023/02/11 03:01:55;;;;;;;;;;;;;;;17.19;33.98;102778.50;5069961;28;1043;-57
2023/02/11 03:04:23;;;;;;;;;;;;;;;16.57;34.61;102771.06;5075532;28;1978;-59
2023/02/11 03:06:54;;;;;;;;;;;;;;;17.73;32.88;102778.69;5074193;28;1124;-56
2023/02/11 03:09:39;;;;;;;;;;;;;;;17.89;32.19;102770.88;5074326;28;1118;-56
2023/02/11 03:12:04;;;;;;;;;;;;;;;16.75;34.68;102766.72;5074339;28;1151;-57
2023/02/11 03:14:30;;;;;;;;;;;;;;;18.51;31.59;102766.97;5074319;28;1020;-57
2023/02/11 03:16:56;;;;;;;;;;;;;;;17.10;33.92;102769.75;5074084;28;1095;-55
2023/02/11 03:19:41;;;;;;;;;;;;;;;16.45;34.96;102775.63;5074404;28;1013;-56
2023/02/11 03:22:10;;;;;;;;;;;;;;;17.62;32.86;102774.81;5074884;28;1831;-54
2023/02/11 03:24:35;;;;;;;;;;;;;;;16.53;34.78;102780.00;5073873;28;1977;-58
2023/02/11 03:27:20;;;;;;;;;;;;;;;17.95;32.47;102781.00;5074293;28;1038;-52
2023/02/11 03:29:50;;;;;;;;;;;;;;;17.07;34.01;102775.69;5074701;28;1015;-56
2023/02/11 03:32:26;;;;;;;;;;;;;;;16.86;34.27;102770.63;5074914;28;1031;-61
2023/02/11 03:34:58;;;;;;;;;;;;;;;17.73;32.60;102767.69;5073963;28;1132;-57
2023/02/11 03:37:26;;;;;;;;;;;;;;;16.73;34.44;102768.81;5073907;28;1072;-57
2023/02/11 03:40:01;;;;;;;;;;;;;;;16.84;34.59;102772.75;5075326;28;1111;-57
2023/02/11 03:42:27;;;;;;;;;;;;;;;16.88;34.10;102766.59;5074684;28;1931;-54
2023/02/11 03:44:55;;;;;;;;;;;;;;;17.13;33.74;102773.13;5074330;28;1217;-55
2023/02/11 03:47:22;;;;;;;;;;;;;;;18.53;31.41;102764.81;5073610;28;1147;-59
2023/02/11 03:49:48;;;;;;;;;;;;;;;16.83;34.28;102766.41;5075159;28;1135;-57
2023/02/11 03:52:13;;;;;;;;;;;;;;;17.17;33.72;102760.59;5077331;28;2341;-57
2023/02/11 03:54:39;;;;;;;;;;;;;;;17.33;33.11;102757.19;5077427;28;856;-60
2023/02/11 03:57:05;;;;;;;;;;;;;;;16.92;34.17;102769.72;5078612;28;1135;-56
2023/02/11 03:59:30;;;;;;;;;;;;;;;18.76;31.13;102763.97;5078658;28;1054;-54
2023/02/11 04:01:58;;;;;;;;;;;;;;;17.16;33.48;102756.16;5078570;28;1091;-61
2023/02/11 04:04:23;;;;;;;;;;;;;;;16.52;34.93;102756.34;5078074;28;1973;-61
2023/02/11 04:06:49;;;;;;;;;;;;;;;16.62;34.49;102753.94;5078215;28;1083;-59
2023/02/11 04:09:14;;;;;;;;;;;;;;;17.44;32.97;102745.44;5078548;28;1048;-60
2023/02/11 04:11:40;;;;;;;;;;;;;;;16.43;34.87;102759.38;5078086;28;1090;-59
2023/02/11 04:14:05;;;;;;;;;;;;;;;18.11;32.19;102752.75;5078456;28;1130;-60
2023/02/11 04:16:30;;;;;;;;;;;;;;;16.93;34.03;102739.28;5078068;28;1130;-55
2023/02/11 04:18:56;;;;;;;;;;;;;;;16.73;34.63;102753.19;5078204;28;917;-60
2023/02/11 04:21:21;;;;;;;;;;;;;;;17.75;32.62;102757.31;5078065;28;1767;-57
2023/02/11 04:23:47;;;;;;;;;;;;;;;16.57;34.60;102754.59;5077895;28;1914;-55
2023/02/11 04:26:12;;;;;;;;;;;;;;;18.43;31.31;102744.19;5078074;28;1097;-59
2023/02/11 04:28:38;;;;;;;;;;;;;;;17.42;33.14;102747.59;5078558;28;1139;-58
2023/02/11 04:31:03;;;;;;;;;;;;;;;16.50;34.65;102747.50;5077325;28;1027;-58
2023/02/11 04:33:29;;;;;;;;;;;;;;;18.04;32.10;102735.53;5078126;28;1098;-55
2023/02/11 04:35:54;;;;;;;;;;;;;;;16.70;34.49;102731.66;5077888;28;1027;-52
2023/02/11 04:38:22;;;;;;;;;;;;;;;16.62;34.82;102745.69;5077567;28;1090;-55
2023/02/11 04:40:48;;;;;;;;;;;;;;;17.26;33.21;102735.31;5077807;28;1154;-52
2023/02/11 04:43:13;;;;;;;;;;;;;;;16.41;34.96;102736.78;5077559;28;1979;-56
2023/02/11 04:45:38;;;;;;;;;;;;;;;18.29;31.85;102737.25;5078034;28;1023;-56
2023/02/11 04:48:04;;;;;;;;;;;;;;;17.00;34.13;102736.47;5077677;28;1142;-56
2023/02/11 04:50:29;;;;;;;;;;;;;;;16.42;35.38;102730.25;5077805;28;1054;-52
2023/02/11 04:52:55;;;;;;;;;;;;;;;16.02;36.17;102733.31;5077837;28;2623;-56
2023/02/11 04:55:20;;;;;;;;;;;;;;;17.32;34.02;102721.69;5076922;28;1162;-57
2023/02/11 04:57:46;;;;;;;;;;;;;;;16.45;35.26;102739.09;5077934;28;1210;-59
2023/02/11 05:00:11;;;;;;;;;;;;;;;15.89;36.40;102736.13;5077178;28;1087;-57
2023/02/11 05:02:37;;;;;;;;;;;;;;;17.25;33.70;102727.28;5077586;28;1909;-55
2023/02/11 05:05:02;;;;;;;;;;;;;;;16.15;35.44;102734.28;5076987;28;1166;-56
2023/02/11 05:07:28;;;;;;;;;;;;;;;15.72;36.50;102728.41;5076710;28;861;-53
2023/02/11 05:09:53;;;;;;;;;;;;;;;16.82;34.38;102739.16;5077046;28;1118;-54
2023/02/11 05:12:19;;;;;;;;;;;;;;;16.32;35.22;102735.38;5077154;28;1105;-54
2023/02/11 05:14:44;;;;;;;;;;;;;;;15.78;35.99;102734.91;5077273;28;1023;-52
2023/02/11 05:17:09;;;;;;;;;;;;;;;17.18;33.41;102738.38;5076764;28;1042;-52
2023/02/11 05:19:35;;;;;;;;;;;;;;;16.02;35.70;102726.94;5076527;28;1101;-56
2023/02/11 05:22:00;;;;;;;;;;;;;;;16.93;33.91;102731.03;5076915;28;1803;-54
2023/02/11 05:24:26;;;;;;;;;;;;;;;16.54;34.38;102724.03;5076513;28;1985;-58
2023/02/11 05:26:51;;;;;;;;;;;;;;;16.15;35.64;102728.78;5077035;28;1035;-60
2023/02/11 05:29:17;;;;;;;;;;;;;;;17.93;32.13;102728.06;5076583;28;1007;-55
2023/02/11 05:31:43;;;;;;;;;;;;;;;16.38;34.92;102734.50;5076936;28;923;-58
2023/02/11 05:34:08;;;;;;;;;;;;;;;17.17;34.01;102730.34;5076475;28;1011;-54
2023/02/11 05:36:33;;;;;;;;;;;;;;;17.17;34.06;102728.44;5076500;28;1027;-55
2023/02/11 05:38:59;;;;;;;;;;;;;;;16.26;36.02;102728.06;5076624;28;1003;-54
2023/02/11 05:41:24;;;;;;;;;;;;;;;17.09;34.57;102729.56;5076503;28;999;-56
2023/02/11 05:43:50;;;;;;;;;;;;;;;16.50;35.10;102731.03;5076434;28;1909;-53
2023/02/11 05:46:16;;;;;;;;;;;;;;;16.26;35.75;102728.06;5076883;28;1063;-56
2023/02/11 05:48:41;;;;;;;;;;;;;;;17.63;33.09;102734.41;5076520;28;1086;-58
2023/02/11 05:51:07;;;;;;;;;;;;;;;16.29;35.23;102735.84;5076945;28;1159;-58
2023/02/11 05:53:32;;;;;;;;;;;;;;;18.11;32.33;102740.94;5076159;28;2539;-53
2023/02/11 05:55:58;;;;;;;;;;;;;;;17.35;33.26;102740.47;5076417;28;944;-55
2023/02/11 05:58:23;;;;;;;;;;;;;;;16.44;35.13;102741.00;5076583;28;1095;-53
2023/02/11 06:00:49;;;;;;;;;;;;;;;16.52;34.83;102746.22;5076432;28;1062;-52
2023/02/11 06:03:14;;;;;;;;;;;;;;;16.81;34.36;102742.97;5076092;28;1898;-50
2023/02/11 06:05:41;;;;;;;;;;;;;;;16.12;35.44;102745.66;5076722;28;1101;-56
2023/02/11 06:08:06;;;;;;;;;;;;;;;17.70;32.90;102743.41;5075789;28;864;-48
2023/02/11 06:10:31;;;;;;;;;;;;;;;16.31;35.29;102750.16;5076180;28;1129;-53
2023/02/11 06:12:57;;;;;;;;;;;;;;;17.96;32.40;102744.09;5075391;28;1045;-53
2023/02/11 06:15:22;;;;;;;;;;;;;;;17.60;32.84;102745.88;5075717;28;1039;-51
2023/02/11 06:17:48;;;;;;;;;;;;;;;17.66;32.84;102736.69;5075781;28;1170;-53
2023/02/11 06:20:14;;;;;;;;;;;;;;;16.98;33.88;102744.06;5075550;28;895;-54
2023/02/11 06:22:39;;;;;;;;;;;;;;;16.45;34.63;102739.91;5075753;28;1886;-55
2023/02/11 06:25:05;;;;;;;;;;;;;;;16.11;35.31;102739.34;5076417;28;1111;-57
2023/02/11 06:27:30;;;;;;;;;;;;;;;15.85;35.92;102743.97;5075501;28;1011;-55
2023/02/11 06:29:56;;;;;;;;;;;;;;;15.60;36.19;102737.53;5075689;28;1030;-54
2023/02/11 06:32:21;;;;;;;;;;;;;;;15.45;36.66;102749.63;5075739;28;883;-58
2023/02/11 06:34:47;;;;;;;;;;;;;;;15.28;36.65;102741.06;5075769;28;1089;-48
2023/02/11 06:37:12;;;;;;;;;;;;;;;15.10;37.06;102740.91;5075932;28;1158;-54
2023/02/11 06:39:37;;;;;;;;;;;;;;;16.45;34.80;102739.09;5076076;28;1150;-55
2023/02/11 06:42:03;;;;;;;;;;;;;;;17.44;32.74;102731.69;5075598;28;1697;-55
2023/02/11 06:44:28;;;;;;;;;;;;;;;16.40;34.27;102737.84;5075247;28;1905;-54
2023/02/11 06:46:54;;;;;;;;;;;;;;;15.72;35.92;102724.81;5076407;28;1150;-55
2023/02/11 06:49:19;;;;;;;;;;;;;;;15.44;36.48;102738.88;5075307;28;1034;-52
2023/02/11 06:51:45;;;;;;;;;;;;;;;15.19;36.67;102742.34;5075367;28;2427;-50
2023/02/11 06:54:10;;;;;;;;;;;;;;;16.35;34.58;102734.09;5075698;28;1124;-55
2023/02/11 06:56:37;;;;;;;;;;;;;;;17.38;32.70;102731.78;5074050;28;939;-59
2023/02/11 06:59:02;;;;;;;;;;;;;;;16.76;33.90;102744.50;5074069;28;1391;-58
2023/02/11 07:01:28;;;;;;;;;;;;;;;15.96;35.12;102736.09;5075962;28;1123;-54
2023/02/11 07:03:53;;;;;;;;;;;;;;;15.56;35.92;102742.63;5076083;28;1914;-57
2023/02/11 07:06:21;;;;;;;;;;;;;;;15.23;36.78;102738.13;5075649;28;1143;-61
2023/02/11 07:08:47;;;;;;;;;;;;;;;16.63;34.10;102733.63;5074909;28;1086;-59
2023/02/11 07:11:13;;;;;;;;;;;;;;;17.54;32.42;102724.78;5075722;28;1031;-60
2023/02/11 07:13:39;;;;;;;;;;;;;;;16.33;34.59;102734.34;5075152;28;1245;-60
2023/02/11 07:16:05;;;;;;;;;;;;;;;15.73;35.55;102727.31;5075869;28;1107;-53
2023/02/11 07:18:31;;;;;;;;;;;;;;;15.44;36.36;102733.41;5075200;28;1042;-55
2023/02/11 07:20:56;;;;;;;;;;;;;;;16.51;34.40;102732.69;5075557;28;860;-55
2023/02/11 07:23:21;;;;;;;;;;;;;;;17.53;32.49;102726.72;5074125;28;2200;-56
2023/02/11 07:25:47;;;;;;;;;;;;;;;16.41;34.25;102730.44;5077085;28;1114;-54
2023/02/11 07:28:12;;;;;;;;;;;;;;;15.78;35.62;102710.22;5079182;28;1146;-53
2023/02/11 07:30:38;;;;;;;;;;;;;;;15.47;36.25;102722.00;5078787;28;1110;-53
2023/02/11 07:33:03;;;;;;;;;;;;;;;15.62;36.13;102714.31;5078809;28;1158;-56
2023/02/11 07:35:29;;;;;;;;;;;;;;;17.16;33.09;102706.69;5079156;28;1150;-57
2023/02/11 07:37:54;;;;;;;;;;;;;;;17.13;33.01;102705.22;5079018;28;1027;-54
2023/02/11 07:40:19;;;;;;;;;;;;;;;16.12;34.93;102702.63;5078945;28;1180;-59
2023/02/11 07:42:45;;;;;;;;;;;;;;;15.63;35.83;102702.28;5078781;28;2029;-60
2023/02/11 07:45:11;;;;;;;;;;;;;;;15.30;36.65;102703.28;5078438;28;901;-58
2023/02/11 07:47:37;;;;;;;;;;;;;;;15.13;36.71;102702.94;5078853;28;1023;-55
2023/02/11 07:50:03;;;;;;;;;;;;;;;16.69;33.77;102697.03;5078912;28;1205;-58
2023/02/11 07:52:29;;;;;;;;;;;;;;;17.53;32.45;102690.09;5078544;28;1859;-56
2023/02/11 07:54:54;;;;;;;;;;;;;;;16.45;34.18;102687.75;5078796;28;1394;-57
2023/02/11 07:57:20;;;;;;;;;;;;;;;15.80;35.76;102688.09;5078286;28;1161;-56
2023/02/11 07:59:45;;;;;;;;;;;;;;;15.46;36.24;102680.03;5077985;28;1077;-58
2023/02/11 08:02:10;;;;;;;;;;;;;;;15.23;36.42;102688.78;5078741;28;1086;-58
2023/02/11 08:04:36;;;;;;;;;;;;;;;16.11;35.14;102683.63;5078445;28;1926;-57
2023/02/11 08:07:01;;;;;;;;;;;;;;;17.30;32.73;102669.69;5078309;28;1131;-58
2023/02/11 08:09:27;;;;;;;;;;;;;;;17.05;33.37;102678.03;5078152;28;887;-58
2023/02/11 08:11:52;;;;;;;;;;;;;;;16.08;34.95;102665.72;5078178;28;1123;-58
2023/02/11 08:14:19;;;;;;;;;;;;;;;15.59;35.97;102659.91;5078180;28;1046;-58
2023/02/11 08:16:44;;;;;;;;;;;;;;;15.96;35.44;102665.56;5078568;28;1066;-56
2023/02/11 08:19:11;;;;;;;;;;;;;;;17.34;32.71;102670.06;5078674;28;1086;-54
2023/02/11 08:21:38;;;;;;;;;;;;;;;16.52;34.04;102671.22;5077825;28;2190;-57
2023/02/11 08:24:03;;;;;;;;;;;;;;;15.83;35.35;102665.69;5078281;28;1989;-59
2023/02/11 08:26:30;;;;;;;;;;;;;;;15.49;35.92;102665.06;5078411;28;1073;-57
2023/02/11 08:28:56;;;;;;;;;;;;;;;15.20;36.68;102667.31;5077068;28;1062;-59
2023/02/11 08:31:26;;;;;;;;;;;;;;;16.42;34.54;102658.84;5078389;28;1031;-54
2023/02/11 08:33:53;;;;;;;;;;;;;;;17.45;32.48;102644.53;5076628;28;902;-54
2023/02/11 08:36:19;;;;;;;;;;;;;;;16.79;33.46;102647.06;5077526;28;1105;-57
2023/02/11 08:38:45;;;;;;;;;;;;;;;15.94;35.38;102639.44;5078126;28;1103;-56
2023/02/11 08:41:10;;;;;;;;;;;;;;;15.58;35.85;102641.78;5077819;28;1158;-53
2023/02/11 08:43:36;;;;;;;;;;;;;;;15.31;36.32;102641.94;5077386;28;1910;-58
2023/02/11 08:46:01;;;;;;;;;;;;;;;16.44;34.41;102639.41;5077582;28;1022;-58
2023/02/11 08:48:27;;;;;;;;;;;;;;;17.46;32.47;102640.72;5077875;28;1042;-55
2023/02/11 08:50:53;;;;;;;;;;;;;;;16.45;34.14;102630.09;5077715;28;1139;-55
2023/02/11 08:53:19;;;;;;;;;;;;;;;15.86;35.49;102626.84;5075988;28;2578;-53
2023/02/11 08:55:50;;;;;;;;;;;;;;;15.49;35.95;102632.16;5077245;28;1082;-58
2023/02/11 08:58:16;;;;;;;;;;;;;;;15.32;36.57;102632.66;5077492;28;1051;-60
2023/02/11 09:00:44;;;;;;;;;;;;;;;16.92;33.50;102618.59;5075955;28;1186;-59
2023/02/11 09:03:10;;;;;;;;;;;;;;;17.27;32.67;102616.00;5077487;28;1977;-59
2023/02/11 09:05:39;;;;;;;;;;;;;;;16.12;34.95;102616.69;5077322;28;1213;-58
2023/02/11 09:08:05;;;;;;;;;;;;;;;15.65;35.92;102612.41;5077243;28;1038;-58
2023/02/11 09:10:30;;;;;;;;;;;;;;;15.35;36.30;102601.25;5076975;28;1154;-56
2023/02/11 09:12:56;;;;;;;;;;;;;;;15.17;36.76;102601.97;5077547;28;1014;-58
2023/02/11 09:15:21;;;;;;;;;;;;;;;16.57;34.20;102597.22;5077407;28;1019;-59
2023/02/11 09:17:46;;;;;;;;;;;;;;;17.49;32.37;102596.22;5076971;28;976;-58
2023/02/11 09:20:12;;;;;;;;;;;;;;;16.63;33.87;102596.28;5076489;28;1117;-57
2023/02/11 09:22:37;;;;;;;;;;;;;;;15.91;35.34;102585.88;5077210;28;2233;-59
2023/02/11 09:25:03;;;;;;;;;;;;;;;15.55;36.04;102592.88;5076735;28;1127;-55
2023/02/11 09:27:28;;;;;;;;;;;;;;;15.45;36.14;102587.88;5076980;28;1138;-54
2023/02/11 09:29:54;;;;;;;;;;;;;;;17.01;33.48;102592.50;5076635;28;1181;-54
2023/02/11 09:32:19;;;;;;;;;;;;;;;17.40;32.98;102587.50;5076608;28;1034;-55
2023/02/11 09:34:45;;;;;;;;;;;;;;;16.41;34.86;102577.53;5076780;28;1059;-55
2023/02/11 09:37:10;;;;;;;;;;;;;;;15.93;36.29;102571.91;5076852;28;1042;-54
2023/02/11 09:39:35;;;;;;;;;;;;;;;15.70;36.80;102560.47;5076623;28;1110;-57
2023/02/11 09:42:05;;;;;;;;;;;;;;;16.85;34.55;102562.88;5076514;28;1226;-58
2023/02/11 09:44:31;;;;;;;;;;;;;;;17.21;33.70;102556.47;5075965;28;1911;-54
2023/02/11 09:46:57;;;;;;;;;;;;;;;16.18;35.70;102555.41;5076949;28;1213;-54
2023/02/11 09:49:25;;;;;;;;;;;;;;;15.68;36.57;102559.00;5074525;28;1044;-58
2023/02/11 09:51:52;;;;;;;;;;;;;;;15.57;36.92;102552.34;5076250;28;2671;-53
2023/02/11 09:54:22;;;;;;;;;;;;;;;17.16;33.96;102558.22;5076484;28;1039;-52
2023/02/11 09:56:48;;;;;;;;;;;;;;;17.12;33.64;102546.03;5075193;28;1119;-52
2023/02/11 09:59:14;;;;;;;;;;;;;;;16.19;35.52;102529.66;5076743;28;1174;-54
2023/02/11 10:01:55;;;;;;;;;;;;;;;15.73;36.21;102540.00;5065430;28;1320;-54
2023/02/11 10:04:32;;;;;;;;;;;;;;;15.44;36.77;102544.25;5075894;28;1969;-52
2023/02/11 10:07:01;;;;;;;;;;;;;;;16.94;33.92;102528.50;5075980;28;988;-51
2023/02/11 10:09:39;;;;;;;;;;;;;;;17.35;33.14;102532.34;5074826;28;1016;-56
2023/02/11 10:12:21;;;;;;;;;;;;;;;16.16;35.35;102527.34;5076088;28;1094;-55
2023/02/11 10:14:49;;;;;;;;;;;;;;;15.68;36.13;102521.47;5074215;28;1039;-56
2023/02/11 10:17:21;;;;;;;;;;;;;;;15.39;36.81;102512.03;5076244;28;1003;-56
2023/02/11 10:20:07;;;;;;;;;;;;;;;15.87;36.02;102502.34;5074430;28;1114;-53
2023/02/11 10:22:36;;;;;;;;;;;;;;;17.33;33.07;102504.22;5074073;28;2250;-52
2023/02/11 10:25:07;;;;;;;;;;;;;;;16.71;34.02;102496.28;5075166;28;1133;-54
2023/02/11 10:27:33;;;;;;;;;;;;;;;15.99;35.54;102492.28;5108326;28;1146;-51
2023/02/11 10:30:01;;;;;;;;;;;;;;;15.59;36.30;102489.06;5075618;28;1075;-58
2023/02/11 10:32:32;;;;;;;;;;;;;;;15.52;36.36;102478.16;5074852;28;1121;-55
2023/02/11 10:34:59;;;;;;;;;;;;;;;17.12;33.57;102491.88;5076246;28;1232;-54
2023/02/11 10:37:25;;;;;;;;;;;;;;;17.44;32.86;102491.59;5074781;28;1170;-61
2023/02/11 10:39:50;;;;;;;;;;;;;;;16.29;35.16;102480.53;5076038;28;1102;-55
2023/02/11 10:42:16;;;;;;;;;;;;;;;15.81;35.84;102476.66;5075093;28;1125;-60
2023/02/11 10:44:54;;;;;;;;;;;;;;;15.48;36.53;102482.41;5075247;28;1914;-51
2023/02/11 10:47:20;;;;;;;;;;;;;;;15.25;36.86;102474.78;5074153;28;1143;-57
2023/02/11 10:49:45;;;;;;;;;;;;;;;16.17;35.55;102471.41;5074547;28;1151;-55
2023/02/11 10:52:12;;;;;;;;;;;;;;;17.33;33.27;102471.25;5075353;28;2402;-55
2023/02/11 10:54:37;;;;;;;;;;;;;;;16.38;34.70;102454.47;5075745;28;1081;-53
2023/02/11 10:57:03;;;;;;;;;;;;;;;15.74;36.08;102449.25;5075549;28;1113;-57
2023/02/11 10:59:29;;;;;;;;;;;;;;;15.44;36.44;102445.53;5076637;28;1110;-57
2023/02/11 11:02:01;;;;;;;;;;;;;;;16.19;35.33;102439.09;5078553;28;1086;-55
2023/02/11 11:04:29;;;;;;;;;;;;;;;17.37;33.10;102433.94;5079353;28;1914;-57
2023/02/11 11:06:55;;;;;;;;;;;;;;;16.25;34.79;102435.41;5079974;28;1022;-55
2023/02/11 11:09:29;;;;;;;;;;;;;;;15.73;35.84;102433.84;5079178;28;1202;-56
2023/02/11 11:11:54;;;;;;;;;;;;;;;15.39;36.68;102425.13;5079621;28;1086;-54
2023/02/11 11:14:24;;;;;;;;;;;;;;;16.25;35.26;102424.41;5079197;28;1109;-50
2023/02/11 11:16:53;;;;;;;;;;;;;;;17.45;33.01;102425.34;5078187;28;1023;-49
2023/02/11 11:19:22;;;;;;;;;;;;;;;16.69;34.18;102419.59;5079620;28;1054;-57
2023/02/11 11:21:51;;;;;;;;;;;;;;;15.97;35.33;102412.09;5078935;28;2328;-52
2023/02/11 11:24:23;;;;;;;;;;;;;;;15.64;36.36;102405.06;5078068;28;1978;-53
2023/02/11 11:26:52;;;;;;;;;;;;;;;15.35;36.59;102403.88;5066103;28;1214;-56
2023/02/11 11:29:19;;;;;;;;;;;;;;;15.11;37.16;102398.19;5077810;28;1035;-55
2023/02/11 11:31:49;;;;;;;;;;;;;;;16.49;34.55;102397.91;5077776;28;1190;-54
2023/02/11 11:34:20;;;;;;;;;;;;;;;17.45;32.74;102397.00;5077578;28;1107;-53
2023/02/11 11:36:45;;;;;;;;;;;;;;;16.35;34.55;102388.19;5078135;28;1337;-53
2023/02/11 11:39:31;;;;;;;;;;;;;;;15.78;35.58;102389.31;5079023;28;1051;-55
2023/02/11 11:41:57;;;;;;;;;;;;;;;15.41;36.79;102389.28;5078555;28;1529;-55
2023/02/11 11:44:24;;;;;;;;;;;;;;;16.95;33.95;102387.31;5078363;28;1980;-56
2023/02/11 11:46:51;;;;;;;;;;;;;;;17.27;33.06;102376.81;5077920;28;923;-55
2023/02/11 11:49:34;;;;;;;;;;;;;;;16.18;35.20;102371.53;5077489;28;1114;-47
2023/02/11 11:52:10;;;;;;;;;;;;;;;15.70;35.87;102367.66;5111488;28;2620;-53
2023/02/11 11:54:36;;;;;;;;;;;;;;;15.36;36.58;102359.81;5077247;28;1023;-48
2023/02/11 11:57:03;;;;;;;;;;;;;;;16.57;34.55;102363.78;5077834;28;1063;-46
2023/02/11 11:59:29;;;;;;;;;;;;;;;17.61;32.54;102359.66;5078495;28;970;-47
2023/02/11 12:01:54;;;;;;;;;;;;;;;16.42;34.77;102351.34;5077502;28;1035;-46
2023/02/11 12:04:23;;;;;;;;;;;;;;;15.89;35.80;102355.66;5078328;28;2226;-53
2023/02/11 12:07:03;;;;;;;;;;;;;;;15.55;36.08;102346.94;5077924;28;1135;-52
2023/02/11 12:09:38;;;;;;;;;;;;;;;15.30;36.64;102347.00;5078011;28;1082;-54
2023/02/11 12:12:07;;;;;;;;;;;;;;;16.90;33.79;102334.97;5077307;28;991;-53
2023/02/11 12:14:51;;;;;;;;;;;;;;;17.26;33.08;102339.41;5078389;28;1027;-52
2023/02/11 12:17:21;;;;;;;;;;;;;;;16.10;35.33;102330.69;5066834;28;1024;-46
2023/02/11 12:19:55;;;;;;;;;;;;;;;15.65;35.95;102324.47;5076732;28;1058;-52
2023/02/11 12:22:23;;;;;;;;;;;;;;;15.84;35.93;102327.25;5076938;28;2225;-53
2023/02/11 12:24:49;;;;;;;;;;;;;;;17.32;33.26;102323.00;5078039;28;1906;-52
2023/02/11 12:27:21;;;;;;;;;;;;;;;17.02;33.45;102322.06;5078298;28;1069;-52
2023/02/11 12:29:49;;;;;;;;;;;;;;;16.16;35.09;102313.28;5078444;28;1126;-53
2023/02/11 12:32:21;;;;;;;;;;;;;;;15.74;35.91;102314.88;5078567;28;1202;-53
2023/02/11 12:35:01;;;;;;;;;;;;;;;15.49;36.30;102312.22;5078231;28;1111;-52
2023/02/11 12:37:36;;;;;;;;;;;;;;;15.83;35.82;102315.41;5077935;28;1086;-52
2023/02/11 12:40:10;;;;;;;;;;;;;;;17.30;33.01;102304.00;5077589;28;1248;-51
2023/02/11 12:46:08;;;;;;;;;;;;;;;16.03;35.18;102301.44;5034979;28;1380;-54
2023/02/11 12:48:38;;;;;;;;;;;;;;;15.68;36.22;102304.81;5074099;28;1071;-49
2023/02/11 12:51:16;;;;;;;;;;;;;;;15.51;36.54;102290.88;5076601;28;1175;-52
2023/02/11 12:53:50;;;;;;;;;;;;;;;17.17;33.52;102287.78;5072202;28;1058;-51
2023/02/11 12:56:20;;;;;;;;;;;;;;;16.81;33.77;102295.16;5077656;28;1046;-55
2023/02/11 12:58:45;;;;;;;;;;;;;;;16.02;35.62;102288.78;5075798;28;1043;-50